TimePDT,TemperatureF,Dew PointF,Humidity,Sea Level PressureIn,VisibilityMPH,Wind Direction,Wind SpeedMPH,Gust SpeedMPH,PrecipitationIn,Events,Conditions,WindDirDegrees,DateUTC
12:53 AM,55.0,51.1,86,30.01,10.0,West,4.6,-,N/A,,Scattered Clouds,270,2013-03-28 07:53:00
1:53 AM,55.9,51.1,84,30.01,10.0,NW,3.5,-,N/A,,Overcast,310,2013-03-28 08:53:00
2:53 AM,55.9,51.1,84,30.01,10.0,Calm,Calm,-,N/A,,Overcast,0,2013-03-28 09:53:00
3:09 AM,55.4,51.8,88,30.01,10.0,Calm,Calm,-,N/A,,Overcast,0,2013-03-28 10:09:00
3:53 AM,55.0,51.1,86,30.01,10.0,ENE,3.5,-,N/A,,Overcast,70,2013-03-28 10:53:00
4:48 AM,55.4,51.8,88,30.01,10.0,Calm,Calm,-,N/A,,Overcast,0,2013-03-28 11:48:00
4:53 AM,55.0,51.1,86,30.01,10.0,NE,3.5,-,N/A,,Overcast,50,2013-03-28 11:53:00
5:53 AM,54.0,52.0,93,30.02,4.0,Calm,Calm,-,0.00,Rain,Light Rain,0,2013-03-28 12:53:00
6:15 AM,55.4,51.8,88,30.02,10.0,Calm,Calm,-,0.00,,Overcast,0,2013-03-28 13:15:00
6:53 AM,55.0,53.1,93,30.02,10.0,Calm,Calm,-,0.00,,Overcast,0,2013-03-28 13:53:00
7:53 AM,55.9,53.1,90,30.04,10.0,Calm,Calm,-,N/A,,Overcast,0,2013-03-28 14:53:00
8:53 AM,57.0,52.0,83,30.06,10.0,Calm,Calm,-,N/A,,Overcast,0,2013-03-28 15:53:00
9:17 AM,57.2,53.6,88,30.07,10.0,West,3.5,-,N/A,,Overcast,260,2013-03-28 16:17:00
9:43 AM,59.0,53.6,82,30.07,10.0,WSW,3.5,-,N/A,,Overcast,240,2013-03-28 16:43:00
9:53 AM,59.0,52.0,78,30.07,10.0,WSW,4.6,-,N/A,,Mostly Cloudy,240,2013-03-28 16:53:00
10:53 AM,62.1,51.1,67,30.07,10.0,Calm,Calm,-,N/A,,Mostly Cloudy,0,2013-03-28 17:53:00
11:40 AM,64.4,51.8,64,30.06,10.0,Variable,4.6,-,N/A,,Mostly Cloudy,0,2013-03-28 18:40:00
11:48 AM,64.4,50.0,59,30.06,10.0,SSW,4.6,-,N/A,,Mostly Cloudy,200,2013-03-28 18:48:00
11:53 AM,64.9,51.1,61,30.06,10.0,Calm,Calm,-,N/A,,Mostly Cloudy,0,2013-03-28 18:53:00
12:53 PM,66.9,52.0,59,30.06,10.0,Variable,3.5,-,N/A,,Mostly Cloudy,0,2013-03-28 19:53:00
1:53 PM,69.1,51.1,53,30.04,10.0,Variable,4.6,-,N/A,,Mostly Cloudy,0,2013-03-28 20:53:00
2:53 PM,70.0,51.1,51,30.03,10.0,Variable,3.5,-,N/A,,Mostly Cloudy,0,2013-03-28 21:53:00
3:47 PM,69.8,50.0,49,30.02,10.0,Variable,4.6,-,N/A,,Mostly Cloudy,0,2013-03-28 22:47:00
3:53 PM,71.1,51.1,49,30.01,10.0,West,6.9,-,N/A,,Mostly Cloudy,260,2013-03-28 22:53:00
4:53 PM,71.1,50.0,47,30.01,10.0,Variable,3.5,-,N/A,,Mostly Cloudy,0,2013-03-28 23:53:00
5:00 PM,71.6,51.8,50,30.01,10.0,NNW,5.8,-,N/A,,Mostly Cloudy,340,2013-03-29 00:00:00
5:07 PM,71.6,51.8,50,30.01,10.0,WNW,5.8,-,N/A,,Mostly Cloudy,300,2013-03-29 00:07:00
5:53 PM,69.1,52.0,54,30.01,10.0,NE,10.4,-,N/A,,Mostly Cloudy,40,2013-03-29 00:53:00
6:00 PM,69.8,51.8,53,30.01,10.0,ENE,10.4,-,N/A,,Partly Cloudy,60,2013-03-29 01:00:00
6:53 PM,66.0,52.0,60,30.02,10.0,NNE,8.1,-,N/A,,Partly Cloudy,30,2013-03-29 01:53:00
7:53 PM,64.9,53.1,65,30.04,10.0,NW,5.8,-,N/A,,Overcast,310,2013-03-29 02:53:00
8:53 PM,61.0,52.0,72,30.06,10.0,Calm,Calm,-,N/A,,Clear,0,2013-03-29 03:53:00
9:53 PM,57.9,51.1,78,30.07,10.0,WNW,3.5,-,N/A,,Partly Cloudy,290,2013-03-29 04:53:00
10:53 PM,57.0,51.1,81,30.08,10.0,NW,4.6,-,N/A,,Clear,310,2013-03-29 05:53:00
11:53 PM,55.9,50.0,80,30.08,10.0,Calm,Calm,-,N/A,,Clear,0,2013-03-29 06:53:00